Time;durP1;ratioP1;P1;durP2;ratioP2;P2;SDS_P1;SDS_P2;PMS_P1;PMS_P2;Temp;Humidity;BMP_temperature;BMP_pressure;BME280_temperature;BME280_humidity;BME280_pressure;Samples;Min_cycle;Max_cycle;Signal;HPM_P1;HPM_P2
2023/11/29 00:01:10;;;;;;;49.30;22.35;;;;;;;4.29;96.21;100179.75;5035000;28;20510;-47
2023/11/29 00:03:38;;;;;;;61.75;26.13;;;;;;;4.29;96.38;100185.22;5034828;28;20041;-48
2023/11/29 00:06:06;;;;;;;52.83;23.98;;;;;;;4.25;96.59;100186.19;5028149;28;20057;-46
2023/11/29 00:08:33;;;;;;;55.95;23.88;;;;;;;4.23;96.78;100178.28;5028633;28;20045;-46
2023/11/29 00:11:00;;;;;;;51.30;22.63;;;;;;;4.18;96.72;100178.41;5027802;28;20053;-48
2023/11/29 00:13:28;;;;;;;61.13;24.05;;;;;;;4.17;97.27;100181.47;5028469;28;20037;-46
2023/11/29 00:15:55;;;;;;;55.53;24.02;;;;;;;4.11;97.12;100178.06;5027620;28;20057;-46
2023/11/29 00:18:22;;;;;;;53.10;24.33;;;;;;;4.07;97.21;100184.50;5028231;28;20463;-47
2023/11/29 00:20:50;;;;;;;59.70;24.80;;;;;;;4.04;97.58;100180.47;5028783;28;20038;-46
2023/11/29 00:23:17;;;;;;;48.92;21.08;;;;;;;4.03;97.46;100178.84;5031874;28;20526;-53
2023/11/29 00:25:44;;;;;;;66.10;23.42;;;;;;;4.01;97.77;100166.56;5027436;28;20045;-46
2023/11/29 00:28:12;;;;;;;46.60;21.00;;;;;;;4.00;97.58;100168.50;5028005;28;20049;-46
2023/11/29 00:30:39;;;;;;;53.17;22.90;;;;;;;3.97;97.43;100163.66;5026460;28;20041;-49
2023/11/29 00:33:06;;;;;;;39.20;20.73;;;;;;;3.92;97.68;100161.06;5027603;28;20060;-48
2023/11/29 00:35:34;;;;;;;50.65;21.65;;;;;;;3.85;97.88;100171.66;5026868;28;20062;-46
2023/11/29 00:38:01;;;;;;;44.50;20.67;;;;;;;3.79;97.76;100161.16;5027727;28;20516;-46
2023/11/29 00:40:29;;;;;;;42.35;21.25;;;;;;;3.73;97.82;100163.25;5018641;28;20046;-46
2023/11/29 00:42:56;;;;;;;46.72;22.15;;;;;;;3.72;98.21;100145.19;5024116;28;20053;-46
2023/11/29 00:45:34;;;;;;;41.30;20.30;;;;;;;3.72;98.34;100144.38;5027606;28;20061;-48
2023/11/29 00:48:02;;;;;;;48.88;20.13;;;;;;;3.71;98.17;100140.81;5027936;28;20626;-47
2023/11/29 00:50:29;;;;;;;55.22;19.23;;;;;;;3.64;98.58;100137.72;5027564;28;20049;-46
2023/11/29 00:52:57;;;;;;;56.65;21.35;;;;;;;3.60;98.27;100136.75;5010284;28;20049;-46
2023/11/29 00:55:24;;;;;;;47.33;18.95;;;;;;;3.52;98.63;100134.78;5010105;28;20411;-49
2023/11/29 00:58:01;;;;;;;46.92;21.38;;;;;;;3.46;98.75;100131.38;5027460;28;20068;-46
2023/11/29 01:00:30;;;;;;;43.75;18.30;;;;;;;3.44;98.71;100121.84;5027273;28;20053;-47
2023/11/29 01:02:57;;;;;;;44.13;19.77;;;;;;;3.41;99.05;100123.28;5027182;28;20057;-45
2023/11/29 01:05:26;;;;;;;44.50;17.63;;;;;;;3.41;98.74;100117.00;5027387;28;20046;-50
2023/11/29 01:07:55;;;;;;;42.47;16.90;;;;;;;3.38;98.83;100123.91;5027325;28;20053;-51
2023/11/29 01:10:22;;;;;;;57.58;19.15;;;;;;;3.36;99.03;100120.66;5027620;28;20117;-48
2023/11/29 01:12:51;;;;;;;58.58;19.05;;;;;;;3.32;99.15;100121.59;5026734;28;20503;-45
2023/11/29 01:15:19;;;;;;;65.97;19.25;;;;;;;3.28;99.33;100115.16;5025080;28;20510;-47
2023/11/29 01:17:46;;;;;;;43.15;19.30;;;;;;;3.22;99.25;100109.00;5026321;28;20523;-47
2023/11/29 01:20:15;;;;;;;45.88;20.13;;;;;;;3.17;99.58;100113.78;5026939;28;20045;-46
2023/11/29 01:22:42;;;;;;;55.05;18.27;;;;;;;3.12;99.81;100108.44;5021971;28;20404;-46
2023/11/29 01:25:10;;;;;;;52.03;17.35;;;;;;;3.12;99.79;100102.97;5024568;28;20042;-47
2023/11/29 01:27:38;;;;;;;46.80;19.92;;;;;;;3.10;100.00;100119.69;5026551;28;20403;-46
2023/11/29 01:30:06;;;;;;;53.88;19.10;;;;;;;3.07;99.90;100120.31;5027206;28;20072;-45
2023/11/29 01:32:34;;;;;;;46.58;20.48;;;;;;;3.06;100.00;100111.31;5027115;28;20147;-45
2023/11/29 01:35:01;;;;;;;75.07;21.13;;;;;;;3.06;100.00;100110.50;5024418;28;20388;-45
2023/11/29 01:37:29;;;;;;;91.25;18.65;;;;;;;3.05;100.00;100103.41;5027419;28;20041;-46
2023/11/29 01:39:56;;;;;;;47.53;19.27;;;;;;;3.03;100.00;100106.47;5019895;28;20049;-45
2023/11/29 01:42:23;;;;;;;73.40;18.60;;;;;;;3.01;100.00;100107.88;5026149;28;20411;-46
2023/11/29 01:44:50;;;;;;;96.40;17.60;;;;;;;3.02;100.00;100101.28;5026078;28;20060;-46
2023/11/29 01:47:18;;;;;;;55.10;17.83;;;;;;;3.03;100.00;100102.91;5027045;28;20124;-46
2023/11/29 01:49:45;;;;;;;54.60;15.77;;;;;;;3.03;100.00;100101.00;5027161;28;20060;-46
2023/11/29 01:52:14;;;;;;;77.97;19.73;;;;;;;3.02;100.00;100104.81;5027109;28;20037;-46
2023/11/29 01:54:42;;;;;;;77.20;18.42;;;;;;;2.99;100.00;100105.44;5026899;28;20049;-48
2023/11/29 01:57:09;;;;;;;50.95;16.45;;;;;;;2.95;100.00;100089.97;5026704;28;20054;-45
2023/11/29 01:59:37;;;;;;;84.55;19.25;;;;;;;2.97;100.00;100085.81;5013234;28;20124;-48
2023/11/29 02:02:05;;;;;;;94.18;18.67;;;;;;;2.98;100.00;100092.91;5026679;28;20053;-47
2023/11/29 02:04:32;;;;;;;64.28;18.08;;;;;;;2.98;100.00;100094.84;5026624;28;20422;-46
2023/11/29 02:07:02;;;;;;;56.88;20.80;;;;;;;2.97;100.00;100093.19;5026845;28;20052;-44
2023/11/29 02:09:29;;;;;;;53.75;16.75;;;;;;;2.99;100.00;100083.56;5026638;28;20595;-49
2023/11/29 02:11:57;;;;;;;50.75;15.50;;;;;;;2.96;100.00;100073.28;5026586;28;20053;-50
2023/11/29 02:14:25;;;;;;;52.33;16.92;;;;;;;2.98;100.00;100076.50;5009004;28;20042;-46
2023/11/29 02:16:52;;;;;;;48.72;15.80;;;;;;;2.95;100.00;100070.84;5025952;28;20068;-46
2023/11/29 02:19:19;;;;;;;48.92;16.48;;;;;;;2.94;100.00;100070.03;5026734;28;20045;-45
2023/11/29 02:21:47;;;;;;;49.80;16.05;;;;;;;2.93;100.00;100079.38;5027147;28;20057;-46
2023/11/29 02:24:24;;;;;;;40.75;13.75;;;;;;;2.90;100.00;100079.97;5026443;28;20558;-48
2023/11/29 02:26:51;;;;;;;64.18;15.98;;;;;;;2.88;100.00;100081.41;5026236;28;20411;-48
2023/11/29 02:29:18;;;;;;;50.55;15.85;;;;;;;2.89;100.00;100086.56;5026562;28;20056;-45
2023/11/29 02:31:46;;;;;;;85.28;16.05;;;;;;;2.87;100.00;100085.25;5025853;28;20063;-45
2023/11/29 02:34:13;;;;;;;56.65;18.05;;;;;;;2.86;100.00;100081.72;5023637;28;20042;-46
2023/11/29 02:36:40;;;;;;;57.42;15.60;;;;;;;2.87;100.00;100083.34;5025593;28;20471;-48
2023/11/29 02:39:09;;;;;;;65.97;16.25;;;;;;;2.87;100.00;100085.25;5026579;28;20403;-49
2023/11/29 02:41:39;;;;;;;42.80;16.23;;;;;;;2.89;100.00;100094.75;5025618;28;20057;-48
2023/11/29 02:44:06;;;;;;;43.67;16.65;;;;;;;2.92;100.00;100099.63;5016061;28;20054;-46
2023/11/29 02:46:34;;;;;;;48.53;13.80;;;;;;;2.97;100.00;100093.19;4992428;28;20752;-47
2023/11/29 02:49:01;;;;;;;32.83;15.15;;;;;;;2.97;100.00;100096.75;5025850;28;20574;-45
2023/11/29 02:51:29;;;;;;;44.97;15.80;;;;;;;2.95;100.00;100088.06;5007896;28;20042;-48
2023/11/29 02:53:56;;;;;;;40.13;13.77;;;;;;;2.96;100.00;100089.69;5023188;28;20097;-51
2023/11/29 02:56:24;;;;;;;45.13;15.80;;;;;;;2.94;100.00;100080.16;5029099;28;20045;-52
2023/11/29 02:58:51;;;;;;;39.25;14.25;;;;;;;2.95;100.00;100076.31;5029615;28;20060;-49
2023/11/29 03:01:18;;;;;;;36.63;14.27;;;;;;;2.92;100.00;100066.81;5074910;23;20049;-44
2023/11/29 03:03:46;;;;;;;42.00;16.00;;;;;;;2.91;100.00;100069.88;5029165;28;20057;-47
2023/11/29 03:06:14;;;;;;;44.15;14.60;;;;;;;2.88;100.00;100076.75;5012450;28;20091;-46
2023/11/29 03:08:41;;;;;;;33.00;14.07;;;;;;;2.87;100.00;100063.38;5029663;28;20477;-45
2023/11/29 03:11:08;;;;;;;32.15;14.52;;;;;;;2.86;100.00;100059.84;5029734;28;20046;-44
2023/11/29 03:13:36;;;;;;;30.40;12.75;;;;;;;2.88;100.00;100059.53;5028859;28;20045;-49
2023/11/29 03:16:03;;;;;;;20.25;11.13;;;;;;;2.88;100.00;100060.34;5029530;28;20049;-45
2023/11/29 03:18:31;;;;;;;23.38;12.15;;;;;;;2.87;100.00;100057.91;5029531;28;20050;-44
2023/11/29 03:20:58;;;;;;;24.75;11.90;;;;;;;2.90;100.00;100055.38;5036679;28;20054;-45
2023/11/29 03:23:25;;;;;;;22.98;10.50;;;;;;;2.88;100.00;100045.88;5011528;28;20056;-44
2023/11/29 03:25:54;;;;;;;17.55;9.38;;;;;;;2.87;100.00;100047.78;5029007;28;20065;-45
2023/11/29 03:28:21;;;;;;;25.98;11.52;;;;;;;2.91;100.00;100040.56;5029734;28;20052;-44
2023/11/29 03:30:48;;;;;;;25.67;11.73;;;;;;;2.98;100.00;100042.88;5028616;28;20402;-44
2023/11/29 03:33:16;;;;;;;19.58;10.07;;;;;;;3.01;100.00;100037.59;5028680;28;20045;-45
2023/11/29 03:35:43;;;;;;;19.77;9.90;;;;;;;2.98;100.00;100038.22;5028106;28;20049;-47
2023/11/29 03:38:10;;;;;;;13.77;8.70;;;;;;;2.98;100.00;100037.41;5026806;28;20048;-45
2023/11/29 03:40:39;;;;;;;21.17;9.75;;;;;;;3.00;100.00;100030.50;5028846;28;20053;-44
2023/11/29 03:43:06;;;;;;;15.90;9.23;;;;;;;3.01;100.00;100021.19;5028186;28;20049;-44
2023/11/29 03:45:33;;;;;;;20.35;10.55;;;;;;;3.00;100.00;100024.22;5026402;28;20064;-44
2023/11/29 03:48:00;;;;;;;29.13;13.40;;;;;;;2.98;100.00;100018.28;5028718;28;20037;-45
2023/11/29 03:50:28;;;;;;;22.60;10.98;;;;;;;2.98;100.00;100023.75;5028791;28;20052;-44
2023/11/29 03:52:55;;;;;;;22.13;10.75;;;;;;;2.97;100.00;100020.19;5011425;28;20053;-45
2023/11/29 03:55:22;;;;;;;20.67;11.00;;;;;;;2.98;100.00;100016.34;5021571;28;20053;-44
2023/11/29 03:57:50;;;;;;;22.95;10.95;;;;;;;2.99;100.00;100015.22;5027256;28;20057;-46
2023/11/29 04:00:18;;;;;;;21.20;10.70;;;;;;;3.02;100.00;100014.59;5035916;28;20053;-44
2023/11/29 04:02:45;;;;;;;18.23;8.88;;;;;;;3.06;100.00;100007.41;5014924;28;20045;-45
2023/11/29 04:05:14;;;;;;;17.63;10.43;;;;;;;3.07;100.00;100005.47;5028136;28;20056;-46
2023/11/29 04:07:42;;;;;;;18.13;9.88;;;;;;;3.11;100.00;100006.44;5028413;28;20530;-46
2023/11/29 04:10:09;;;;;;;20.02;10.30;;;;;;;3.14;100.00;99991.34;5015152;28;20050;-47
2023/11/29 04:12:37;;;;;;;18.70;11.30;;;;;;;3.17;100.00;100001.66;5028711;28;20061;-45
2023/11/29 04:15:05;;;;;;;20.23;11.05;;;;;;;3.22;100.00;99994.13;5028227;28;20072;-47
2023/11/29 04:17:32;;;;;;;18.10;10.25;;;;;;;3.24;100.00;99997.34;5028012;28;20049;-47
2023/11/29 04:19:59;;;;;;;15.77;9.15;;;;;;;3.22;100.00;99979.63;5028190;28;20045;-45
2023/11/29 04:22:26;;;;;;;16.88;9.00;;;;;;;3.23;100.00;99990.25;5027391;28;20051;-44
2023/11/29 04:24:54;;;;;;;14.30;8.50;;;;;;;3.21;100.00;99994.41;5016358;28;20578;-46
2023/11/29 04:27:22;;;;;;;14.25;8.75;;;;;;;3.22;100.00;99993.31;5028072;28;20805;-44
2023/11/29 04:29:49;;;;;;;15.77;9.18;;;;;;;3.21;100.00;99984.28;5020905;28;20050;-44
2023/11/29 04:32:16;;;;;;;16.00;10.07;;;;;;;3.21;100.00;99986.22;5028424;28;20053;-45
2023/11/29 04:34:44;;;;;;;21.02;10.30;;;;;;;3.21;100.00;99986.22;5027516;28;20053;-47
2023/11/29 04:37:15;;;;;;;16.55;10.20;;;;;;;3.24;100.00;99985.59;5028219;28;20049;-44
2023/11/29 04:39:43;;;;;;;16.10;9.02;;;;;;;3.22;100.00;99982.38;5027994;28;20053;-45
2023/11/29 04:42:10;;;;;;;15.80;10.68;;;;;;;3.22;100.00;99985.09;5027915;28;20056;-43
2023/11/29 04:44:37;;;;;;;15.48;9.38;;;;;;;3.22;100.00;99987.84;5026980;28;20427;-46
2023/11/29 04:47:05;;;;;;;15.25;8.68;;;;;;;3.20;100.00;99979.97;5027452;28;20046;-45
2023/11/29 04:49:32;;;;;;;15.68;9.20;;;;;;;3.20;100.00;99971.75;5027618;28;20419;-46
2023/11/29 04:52:00;;;;;;;13.20;8.80;;;;;;;3.21;100.00;99976.09;5028026;28;20056;-46
2023/11/29 04:54:28;;;;;;;15.48;9.05;;;;;;;3.21;100.00;99969.81;5027680;28;20045;-44
2023/11/29 04:56:55;;;;;;;15.13;9.07;;;;;;;3.19;100.00;99970.13;5027182;28;20494;-49
2023/11/29 04:59:22;;;;;;;16.30;8.88;;;;;;;3.20;100.00;99957.28;5026862;28;20558;-44
2023/11/29 05:01:51;;;;;;;15.60;7.90;;;;;;;3.23;100.00;99962.09;5025954;28;20045;-46
2023/11/29 05:04:18;;;;;;;16.63;10.45;;;;;;;3.22;100.00;99957.75;5025368;28;20060;-52
2023/11/29 05:06:48;;;;;;;17.08;9.30;;;;;;;3.22;100.00;99952.28;5025149;28;20499;-47
2023/11/29 05:09:15;;;;;;;19.10;9.52;;;;;;;3.22;100.00;99949.53;5023632;28;20526;-45
2023/11/29 05:11:42;;;;;;;17.92;10.40;;;;;;;3.21;100.00;99950.66;5026921;28;20060;-49
2023/11/29 05:14:10;;;;;;;16.77;10.43;;;;;;;3.18;100.00;99949.34;5019094;28;20133;-45
2023/11/29 05:16:39;;;;;;;16.65;9.25;;;;;;;3.17;100.00;99957.91;5025245;28;20116;-46
2023/11/29 05:19:06;;;;;;;15.43;8.85;;;;;;;3.15;100.00;99949.22;5026173;28;20499;-48
2023/11/29 05:21:35;;;;;;;18.05;10.40;;;;;;;3.15;100.00;99949.22;5026051;28;20057;-44
2023/11/29 05:24:03;;;;;;;20.10;9.27;;;;;;;3.16;100.00;99953.53;5027424;28;20041;-46
2023/11/29 05:26:30;;;;;;;21.80;10.05;;;;;;;3.15;100.00;99954.66;5019868;28;20048;-45
2023/11/29 05:28:59;;;;;;;17.48;9.43;;;;;;;3.12;100.00;99947.91;5025918;28;20057;-45
2023/11/29 05:31:26;;;;;;;19.52;11.15;;;;;;;3.08;100.00;99945.00;5026446;28;20609;-44
2023/11/29 05:33:54;;;;;;;20.05;11.02;;;;;;;3.04;100.00;99949.47;5025945;28;20052;-45
2023/11/29 05:36:21;;;;;;;21.55;10.45;;;;;;;3.02;100.00;99948.16;5026093;28;20058;-45
2023/11/29 05:38:49;;;;;;;18.73;11.27;;;;;;;3.02;100.00;99946.25;5024955;28;20042;-45
2023/11/29 05:41:17;;;;;;;22.85;10.63;;;;;;;3.00;100.00;99947.69;5027494;28;20096;-47
2023/11/29 05:43:44;;;;;;;19.48;10.98;;;;;;;2.98;100.00;99949.91;5026736;28;20384;-45
2023/11/29 05:46:11;;;;;;;22.83;11.30;;;;;;;2.96;100.00;99942.06;5025956;28;20045;-45
2023/11/29 05:48:39;;;;;;;21.42;11.15;;;;;;;2.94;100.00;99944.25;5026165;28;20038;-45
2023/11/29 05:51:06;;;;;;;18.33;10.25;;;;;;;2.93;100.00;99942.66;5013561;28;20062;-45
2023/11/29 05:53:33;;;;;;;19.55;10.55;;;;;;;2.91;100.00;99944.88;5016746;28;20535;-46
2023/11/29 05:56:01;;;;;;;25.38;11.65;;;;;;;2.90;100.00;99946.03;5025744;28;20438;-45
2023/11/29 05:58:28;;;;;;;18.85;11.07;;;;;;;2.89;100.00;99935.38;5021004;28;20707;-45
2023/11/29 06:00:55;;;;;;;23.33;11.75;;;;;;;2.92;100.00;99930.13;5025257;28;20046;-45
2023/11/29 06:03:25;;;;;;;17.08;10.23;;;;;;;2.91;100.00;99939.41;5026837;28;20096;-44
2023/11/29 06:05:53;;;;;;;19.23;10.85;;;;;;;2.91;100.00;99942.16;5026317;28;20053;-47
2023/11/29 06:08:20;;;;;;;18.45;9.77;;;;;;;2.89;100.00;99933.47;5026662;28;20052;-47
2023/11/29 06:10:48;;;;;;;19.73;11.18;;;;;;;2.91;100.00;99933.94;5025407;28;20582;-46
2023/11/29 06:13:17;;;;;;;18.73;10.52;;;;;;;2.91;100.00;99936.69;5026632;28;20061;-45
2023/11/29 06:15:45;;;;;;;21.80;11.27;;;;;;;2.87;100.00;99926.72;5026745;28;20060;-47
2023/11/29 06:18:15;;;;;;;21.42;11.75;;;;;;;2.82;100.00;99918.66;5013312;28;20050;-45
2023/11/29 06:20:43;;;;;;;22.45;11.23;;;;;;;2.81;100.00;99944.34;5026285;28;20049;-47
2023/11/29 06:23:10;;;;;;;24.00;11.43;;;;;;;2.76;100.00;99931.63;5025793;28;20502;-48
2023/11/29 06:25:37;;;;;;;20.15;12.13;;;;;;;2.75;100.00;99932.78;5026367;28;20045;-47
2023/11/29 06:28:05;;;;;;;18.52;10.48;;;;;;;2.70;100.00;99921.94;5027749;28;20045;-44
2023/11/29 06:30:33;;;;;;;19.35;10.52;;;;;;;2.70;100.00;99924.69;5030397;28;20037;-47
2023/11/29 06:33:01;;;;;;;19.42;11.13;;;;;;;2.66;100.00;99920.97;5030425;28;20140;-45
2023/11/29 06:35:28;;;;;;;20.02;10.02;;;;;;;2.65;100.00;99926.75;5029774;28;20053;-44
2023/11/29 06:37:56;;;;;;;21.42;11.02;;;;;;;2.62;100.00;99930.13;5030259;28;20072;-46
2023/11/29 06:40:33;;;;;;;22.00;11.13;;;;;;;2.60;100.00;99935.06;5029891;28;20053;-45
2023/11/29 06:43:01;;;;;;;17.63;9.85;;;;;;;2.57;100.00;99932.97;5029655;28;20049;-45
2023/11/29 06:45:28;;;;;;;18.42;9.88;;;;;;;2.55;100.00;99919.63;5030417;28;20675;-44
2023/11/29 06:47:55;;;;;;;20.88;10.30;;;;;;;2.56;100.00;99925.88;5029604;28;20045;-44
2023/11/29 06:50:23;;;;;;;19.95;10.30;;;;;;;2.55;100.00;99929.72;5029480;28;20053;-45
2023/11/29 06:52:50;;;;;;;19.60;10.32;;;;;;;2.51;100.00;99918.63;5029748;28;20049;-45
2023/11/29 06:55:17;;;;;;;16.25;10.93;;;;;;;2.47;100.00;99918.44;5029857;28;20045;-47
2023/11/29 06:57:45;;;;;;;20.10;10.68;;;;;;;2.42;100.00;99915.84;5030326;28;20537;-45
2023/11/29 07:00:16;;;;;;;19.65;10.23;;;;;;;2.40;100.00;99917.28;5030296;28;20075;-44
2023/11/29 07:02:44;;;;;;;18.80;10.18;;;;;;;2.34;100.00;99915.78;5029009;28;20419;-48
2023/11/29 07:05:11;;;;;;;23.42;12.20;;;;;;;2.33;100.00;99911.44;5029883;28;20045;-43
2023/11/29 07:07:39;;;;;;;16.45;10.18;;;;;;;2.30;100.00;99910.13;5029701;28;20044;-46
2023/11/29 07:10:07;;;;;;;20.60;10.50;;;;;;;2.30;100.00;99910.13;5030060;28;20064;-45
2023/11/29 07:12:35;;;;;;;15.90;9.13;;;;;;;2.28;100.00;99911.56;5022336;28;20046;-47
2023/11/29 07:15:02;;;;;;;15.82;8.45;;;;;;;2.25;100.00;99917.66;5023798;28;20065;-45
2023/11/29 07:17:30;;;;;;;15.02;8.73;;;;;;;2.24;100.00;99918.75;5029481;28;20038;-44
2023/11/29 07:20:00;;;;;;;15.20;8.52;;;;;;;2.22;100.00;99912.81;5029219;28;20060;-44
2023/11/29 07:22:27;;;;;;;20.00;8.65;;;;;;;2.19;100.00;99916.97;5011625;28;20042;-46
2023/11/29 07:24:56;;;;;;;14.52;8.45;;;;;;;2.20;100.00;99920.47;5028953;28;20575;-45
2023/11/29 07:27:24;;;;;;;12.45;8.93;;;;;;;2.20;100.00;99923.22;5029574;28;20439;-46
2023/11/29 07:29:51;;;;;;;19.73;10.52;;;;;;;2.21;100.00;99919.38;5026413;28;20061;-47
2023/11/29 07:32:22;;;;;;;14.85;8.27;;;;;;;2.22;100.00;99915.53;5029443;28;20712;-46
2023/11/29 07:34:50;;;;;;;14.60;8.43;;;;;;;2.26;100.00;99916.53;5028514;28;20057;-45
2023/11/29 07:37:19;;;;;;;16.85;9.05;;;;;;;2.21;100.00;99912.00;5027342;28;20407;-45
2023/11/29 07:39:47;;;;;;;16.13;8.73;;;;;;;2.20;100.00;99912.28;5016958;28;20064;-45
2023/11/29 07:42:15;;;;;;;13.32;7.88;;;;;;;2.18;100.00;99915.34;5012142;28;20073;-48
2023/11/29 07:44:43;;;;;;;14.45;7.85;;;;;;;2.15;100.00;99906.97;5027778;28;20412;-45
2023/11/29 07:47:10;;;;;;;15.13;8.63;;;;;;;2.12;100.00;99916.56;5027769;28;20041;-45
2023/11/29 07:49:38;;;;;;;11.02;8.00;;;;;;;2.09;100.00;99911.72;5019774;28;20049;-49
2023/11/29 07:52:06;;;;;;;14.52;7.15;;;;;;;2.07;100.00;99907.69;5039854;28;20040;-45
2023/11/29 07:54:33;;;;;;;11.60;6.45;;;;;;;2.05;100.00;99907.22;5037004;28;20393;-45
2023/11/29 07:57:01;;;;;;;15.65;6.68;;;;;;;2.01;100.00;99903.50;5028319;28;20095;-46
2023/11/29 07:59:28;;;;;;;12.02;6.45;;;;;;;1.98;100.00;99904.91;5028544;28;20719;-45
2023/11/29 08:01:56;;;;;;;13.52;8.00;;;;;;;1.98;100.00;99906.84;5028655;28;20041;-48
2023/11/29 08:04:24;;;;;;;12.50;6.32;;;;;;;1.95;100.00;99905.53;5029128;28;20057;-52
2023/11/29 08:06:53;;;;;;;14.88;7.38;;;;;;;1.93;100.00;99901.50;5014697;28;20050;-45
2023/11/29 08:09:20;;;;;;;13.00;6.65;;;;;;;1.88;100.00;99916.06;5029101;28;20049;-47
2023/11/29 08:11:47;;;;;;;13.48;6.78;;;;;;;1.85;100.00;99901.09;5027532;28;20051;-47
2023/11/29 08:14:15;;;;;;;9.77;6.35;;;;;;;1.84;100.00;99912.34;5027841;28;20033;-45
2023/11/29 08:16:42;;;;;;;9.35;5.68;;;;;;;1.85;100.00;99912.00;5023422;28;20057;-46
2023/11/29 08:19:09;;;;;;;12.30;6.25;;;;;;;1.87;100.00;99914.44;5023379;28;20050;-45
2023/11/29 08:21:38;;;;;;;11.15;6.80;;;;;;;1.91;100.00;99904.53;5022485;28;20056;-46
2023/11/29 08:24:06;;;;;;;10.88;6.75;;;;;;;1.97;100.00;99913.41;5027351;28;20038;-46
2023/11/29 08:26:35;;;;;;;8.65;5.82;;;;;;;1.97;100.00;99910.66;5022943;28;20054;-45
2023/11/29 08:29:02;;;;;;;15.90;6.93;;;;;;;2.00;100.00;99918.25;5022635;28;20507;-47
2023/11/29 08:31:29;;;;;;;12.02;7.47;;;;;;;1.99;100.00;99916.63;5026226;28;20059;-46
2023/11/29 08:33:57;;;;;;;18.40;10.30;;;;;;;2.00;100.00;99910.06;5021470;28;20050;-48
2023/11/29 08:36:24;;;;;;;20.10;11.02;;;;;;;2.00;100.00;99910.06;5021658;28;20412;-46
2023/11/29 08:38:51;;;;;;;22.45;11.85;;;;;;;1.97;100.00;99902.47;5001657;28;20057;-47
2023/11/29 08:41:19;;;;;;;24.73;14.38;;;;;;;1.98;100.00;99902.19;5018136;28;20382;-46
2023/11/29 08:43:47;;;;;;;24.08;11.40;;;;;;;2.01;100.00;99908.94;5020388;28;20064;-46
2023/11/29 08:46:14;;;;;;;24.23;13.02;;;;;;;2.01;100.00;99903.50;5025155;28;20041;-54
2023/11/29 08:48:42;;;;;;;20.23;10.82;;;;;;;2.01;100.00;99904.31;5020745;28;20057;-47
2023/11/29 08:51:10;;;;;;;20.27;11.13;;;;;;;1.99;100.00;99911.16;5025492;28;20395;-45
2023/11/29 08:53:37;;;;;;;19.20;10.88;;;;;;;1.98;100.00;99907.66;5024945;28;20041;-47
2023/11/29 08:56:17;;;;;;;25.13;10.80;;;;;;;1.99;100.00;99908.44;5012418;28;20053;-46
2023/11/29 08:58:46;;;;;;;18.65;10.15;;;;;;;1.97;100.00;99907.94;5026894;28;20057;-46
2023/11/29 09:01:20;;;;;;;17.35;8.60;;;;;;;1.94;100.00;99908.56;5026043;28;20057;-45
2023/11/29 09:03:48;;;;;;;18.30;9.20;;;;;;;1.91;100.00;99907.25;5023678;28;20049;-45
2023/11/29 09:06:16;;;;;;;16.23;8.88;;;;;;;1.93;100.00;99907.78;5024780;28;20052;-49
2023/11/29 09:08:44;;;;;;;18.13;9.48;;;;;;;1.93;100.00;99896.03;5022301;28;20061;-51
2023/11/29 09:11:13;;;;;;;17.88;10.63;;;;;;;1.96;100.00;99900.88;5022206;28;20049;-45
2023/11/29 09:13:41;;;;;;;15.30;8.57;;;;;;;1.97;100.00;99894.28;5024615;28;20057;-45
2023/11/29 09:16:09;;;;;;;17.48;8.00;;;;;;;1.97;100.00;99897.03;5021636;28;20574;-49
2023/11/29 09:18:39;;;;;;;15.63;8.45;;;;;;;1.99;100.00;99898.31;5023371;28;20415;-49
2023/11/29 09:21:06;;;;;;;14.27;8.15;;;;;;;1.99;100.00;99890.13;5023310;28;20041;-50
2023/11/29 09:23:34;;;;;;;18.00;8.82;;;;;;;2.01;100.00;99892.56;5021126;28;20053;-46
2023/11/29 09:26:01;;;;;;;17.63;9.32;;;;;;;1.98;100.00;99898.66;5023553;28;20068;-46
2023/11/29 09:28:29;;;;;;;18.63;8.90;;;;;;;2.03;100.00;99896.59;5016849;28;20049;-49
2023/11/29 09:31:00;;;;;;;15.38;8.35;;;;;;;2.06;100.00;99895.19;5021136;28;20053;-48
2023/11/29 09:33:29;;;;;;;13.68;8.25;;;;;;;2.10;100.00;99896.16;5022925;28;20608;-46
2023/11/29 09:36:00;;;;;;;;;;;;;;;2.16;100.00;99892.19;5022980;28;20049;-46
2023/11/29 09:38:27;;;;;;;16.80;8.65;;;;;;;2.23;100.00;99893.38;5024135;28;20652;-47
2023/11/29 09:40:55;;;;;;;19.33;10.75;;;;;;;2.24;100.00;99883.25;5023108;28;20052;-49
2023/11/29 09:43:23;;;;;;;19.35;10.13;;;;;;;2.31;100.00;99883.63;5022207;28;20049;-46
2023/11/29 09:45:50;;;;;;;17.75;9.13;;;;;;;2.39;100.00;99877.41;5024014;28;20060;-47
2023/11/29 09:48:18;;;;;;;16.35;9.63;;;;;;;2.44;100.00;99885.47;5023733;28;20058;-49
2023/11/29 09:50:46;;;;;;;15.68;9.30;;;;;;;2.47;100.00;99880.19;5023544;28;20068;-47
2023/11/29 09:53:13;;;;;;;14.68;8.77;;;;;;;2.53;100.00;99883.59;5022102;28;20112;-46
2023/11/29 09:55:43;;;;;;;17.80;8.35;;;;;;;2.60;100.00;99885.88;5020059;28;20049;-53
2023/11/29 09:58:10;;;;;;;16.63;9.95;;;;;;;2.65;100.00;99883.03;5021825;28;20578;-45
2023/11/29 10:00:38;;;;;;;15.32;9.15;;;;;;;2.72;100.00;99875.19;5005346;28;20061;-47
2023/11/29 10:03:12;;;;;;;16.35;9.35;;;;;;;2.82;100.00;99877.63;5020489;28;20072;-46
2023/11/29 10:05:44;;;;;;;18.33;8.48;;;;;;;2.95;100.00;99877.53;5024044;28;20057;-46
2023/11/29 10:08:22;;;;;;;13.60;7.80;;;;;;;3.08;100.00;99881.28;5020669;28;20057;-49
2023/11/29 10:10:53;;;;;;;19.02;8.52;;;;;;;3.21;100.00;99874.06;5026414;28;20414;-49
2023/11/29 10:13:20;;;;;;;16.25;7.90;;;;;;;3.29;100.00;99876.03;5025610;28;20046;-45
2023/11/29 10:15:49;;;;;;;20.25;9.30;;;;;;;3.36;100.00;99873.66;5026597;28;20068;-50
2023/11/29 10:18:18;;;;;;;26.38;10.38;;;;;;;3.40;100.00;99877.34;5028159;28;20419;-50
2023/11/29 10:20:48;;;;;;;18.13;8.65;;;;;;;3.46;100.00;99873.34;5023768;28;20058;-46
2023/11/29 10:23:31;;;;;;;17.52;9.35;;;;;;;3.54;100.00;99869.81;5027582;28;20057;-46
2023/11/29 10:25:59;;;;;;;20.58;9.63;;;;;;;3.61;100.00;99881.09;5028076;28;20049;-46
2023/11/29 10:28:26;;;;;;;17.35;8.02;;;;;;;3.63;100.00;99879.63;5028198;28;20072;-46
2023/11/29 10:30:54;;;;;;;17.33;8.07;;;;;;;3.67;100.00;99891.56;5003155;28;20054;-46
2023/11/29 10:33:22;;;;;;;18.55;7.63;;;;;;;3.70;100.00;99881.91;5026624;28;20388;-45
2023/11/29 10:35:50;;;;;;;13.52;6.78;;;;;;;3.74;100.00;99880.13;5028990;28;20049;-45
2023/11/29 10:38:20;;;;;;;10.00;5.25;;;;;;;3.76;100.00;99877.88;5023433;28;20114;-45
2023/11/29 10:40:49;;;;;;;13.63;6.70;;;;;;;3.79;100.00;99885.44;5028041;28;20041;-44
2023/11/29 10:43:23;;;;;;;13.10;6.32;;;;;;;3.83;100.00;99877.41;5010590;28;20057;-49
2023/11/29 10:45:56;;;;;;;14.38;5.70;;;;;;;3.77;100.00;99884.97;5026168;28;20061;-53
2023/11/29 10:48:29;;;;;;;12.95;7.30;;;;;;;3.75;100.00;99878.22;5029075;28;20053;-47
2023/11/29 10:50:57;;;;;;;12.18;6.25;;;;;;;3.70;100.00;99873.69;5027748;28;20046;-46
2023/11/29 10:53:25;;;;;;;11.20;5.63;;;;;;;3.67;100.00;99872.41;5026956;28;20402;-47
2023/11/29 10:55:52;;;;;;;10.18;6.00;;;;;;;3.66;100.00;99872.72;5024829;28;20053;-50
2023/11/29 10:58:30;;;;;;;10.02;5.22;;;;;;;3.65;100.00;99871.91;5027396;28;20763;-46
2023/11/29 11:01:00;;;;;;;15.70;5.72;;;;;;;3.64;100.00;99875.78;5023271;28;20053;-45
2023/11/29 11:03:46;;;;;;;12.52;7.03;;;;;;;3.61;100.00;99873.69;5027606;28;20080;-49
2023/11/29 11:06:23;;;;;;;12.93;7.05;;;;;;;3.61;100.00;99878.34;5024367;28;20056;-48
2023/11/29 11:08:54;;;;;;;14.65;6.25;;;;;;;3.58;100.00;99870.78;5027745;28;20060;-52
2023/11/29 11:11:44;;;;;;;13.23;6.80;;;;;;;3.59;100.00;99861.44;5027914;28;20410;-52
2023/11/29 11:14:18;;;;;;;10.43;5.93;;;;;;;3.57;100.00;99858.25;5028528;28;20392;-46
2023/11/29 11:17:02;;;;;;;9.43;5.13;;;;;;;3.55;100.00;99858.53;5028239;28;20434;-46
2023/11/29 11:19:34;;;;;;;9.23;5.55;;;;;;;3.52;100.00;99852.91;5035194;28;20068;-46
2023/11/29 11:22:11;;;;;;;13.02;5.40;;;;;;;3.51;100.00;99843.09;5024840;28;20417;-49
2023/11/29 11:25:04;;;;;;;13.70;6.85;;;;;;;3.48;100.00;99843.72;5016147;28;20059;-46